Time,TemperatureF,DewpointF,PressureIn,WindDirection,WindDirectionDegrees,WindSpeedMPH,WindSpeedGustMPH,Humidity,HourlyPrecipIn,Conditions,Clouds,dailyrainin,SoftwareType,DateUTC
2013-03-21 00:02:00,27.1,25.2,30.27,NW,323,0.0,1.0,92,0.00,,,0.00,meteohub,2013-03-21 07:02:00,
2013-03-21 00:12:00,27.5,25.7,30.27,NW,323,0.0,1.0,93,0.00,,,0.00,meteohub,2013-03-21 07:12:00,
2013-03-21 00:17:00,27.7,25.9,30.27,NW,323,0.0,1.0,93,0.00,,,0.00,meteohub,2013-03-21 07:17:00,
2013-03-21 00:22:00,27.9,26.4,30.26,NW,323,0.0,1.0,94,0.00,,,0.00,meteohub,2013-03-21 07:22:00,
2013-03-21 00:27:00,27.9,26.1,30.26,West,279,0.0,2.0,93,0.00,,,0.00,meteohub,2013-03-21 07:27:00,
2013-03-21 00:32:00,27.9,26.1,30.25,SSW,194,0.0,2.0,93,0.00,,,0.00,meteohub,2013-03-21 07:32:00,
2013-03-21 00:37:00,27.9,26.1,30.25,SSW,193,0.0,3.0,93,0.00,,,0.00,meteohub,2013-03-21 07:37:00,
2013-03-21 00:42:00,27.9,26.1,30.25,SSW,193,0.0,3.0,93,0.00,,,0.00,meteohub,2013-03-21 07:42:00,
2013-03-21 00:47:00,27.9,26.1,30.25,SSW,193,0.0,3.0,93,0.00,,,0.00,meteohub,2013-03-21 07:47:00,
2013-03-21 00:52:00,28.0,26.2,30.25,SSW,193,0.0,2.0,93,0.00,,,0.00,meteohub,2013-03-21 07:52:00,
2013-03-21 00:57:00,28.0,26.2,30.25,SSW,193,0.0,0.0,93,0.00,,,0.00,meteohub,2013-03-21 07:57:00,
2013-03-21 01:07:00,28.2,26.4,30.24,SSW,193,1.0,2.0,93,0.00,,,0.00,meteohub,2013-03-21 08:07:00,
2013-03-21 01:12:00,28.4,26.6,30.23,SSW,193,1.0,2.0,93,0.00,,,0.00,meteohub,2013-03-21 08:12:00,
2013-03-21 01:17:00,28.6,26.8,30.23,SSW,193,2.0,2.0,93,0.00,,,0.00,meteohub,2013-03-21 08:17:00,
2013-03-21 01:22:00,28.6,26.8,30.23,SSW,193,0.0,3.0,93,0.00,,,0.00,meteohub,2013-03-21 08:22:00,
2013-03-21 01:32:00,28.6,26.8,30.22,SSW,193,0.0,3.0,93,0.00,,,0.00,meteohub,2013-03-21 08:32:00,
2013-03-21 01:37:00,28.6,26.8,30.22,SSW,193,2.0,2.0,93,0.00,,,0.00,meteohub,2013-03-21 08:37:00,
2013-03-21 01:42:00,28.6,26.8,30.22,SSW,193,0.0,3.0,93,0.00,,,0.00,meteohub,2013-03-21 08:42:00,
2013-03-21 01:47:00,28.8,27.0,30.22,SSW,193,0.0,3.0,93,0.00,,,0.00,meteohub,2013-03-21 08:47:00,
2013-03-21 01:52:00,28.8,27.0,30.21,SSW,193,0.0,3.0,93,0.00,,,0.00,meteohub,2013-03-21 08:52:00,
2013-03-21 01:57:00,28.8,27.0,30.21,South,189,0.0,2.0,93,0.00,,,0.00,meteohub,2013-03-21 08:57:00,
2013-03-21 02:02:00,28.8,27.3,30.21,South,189,1.0,2.0,94,0.00,,,0.00,meteohub,2013-03-21 09:02:00,
2013-03-21 02:07:00,28.8,27.3,30.20,South,189,0.0,2.0,94,0.00,,,0.00,meteohub,2013-03-21 09:07:00,
2013-03-21 02:12:00,28.8,27.3,30.19,South,189,0.0,2.0,94,0.00,,,0.00,meteohub,2013-03-21 09:12:00,
2013-03-21 02:17:00,28.8,27.3,30.19,South,189,1.0,1.0,94,0.00,,,0.00,meteohub,2013-03-21 09:17:00,
2013-03-21 02:22:00,28.8,27.3,30.18,South,189,0.0,1.0,94,0.00,,,0.00,meteohub,2013-03-21 09:22:00,
2013-03-21 02:27:00,28.8,27.3,30.18,South,189,0.0,1.0,94,0.00,,,0.00,meteohub,2013-03-21 09:27:00,
2013-03-21 02:32:00,28.8,27.3,30.17,South,189,0.0,1.0,94,0.00,,,0.00,meteohub,2013-03-21 09:32:00,
2013-03-21 02:37:00,28.6,27.1,30.17,South,189,0.0,1.0,94,0.00,,,0.00,meteohub,2013-03-21 09:37:00,
2013-03-21 02:42:00,28.6,27.1,30.17,SSW,209,0.0,1.0,94,0.00,,,0.00,meteohub,2013-03-21 09:42:00,
2013-03-21 02:47:00,28.4,27.0,30.16,SSW,209,0.0,2.0,94,0.00,,,0.00,meteohub,2013-03-21 09:47:00,
2013-03-21 02:52:00,28.2,26.8,30.16,SSW,209,0.0,2.0,94,0.00,,,0.00,meteohub,2013-03-21 09:52:00,
2013-03-21 02:57:00,28.2,26.8,30.15,SSW,209,0.0,2.0,94,0.00,,,0.00,meteohub,2013-03-21 09:57:00,
2013-03-21 03:02:00,28.2,26.8,30.15,SSW,209,0.0,1.0,94,0.00,,,0.00,meteohub,2013-03-21 10:02:00,
2013-03-21 03:07:00,28.2,26.8,30.14,SSW,209,0.0,1.0,94,0.00,,,0.00,meteohub,2013-03-21 10:07:00,
2013-03-21 03:12:00,28.2,26.8,30.14,SSW,209,0.0,1.0,94,0.00,,,0.00,meteohub,2013-03-21 10:12:00,
2013-03-21 03:17:00,28.2,26.8,30.13,SSW,209,0.0,0.0,94,0.00,,,0.00,meteohub,2013-03-21 10:17:00,
2013-03-21 03:22:00,28.2,26.8,30.12,SSW,209,0.0,0.0,94,0.00,,,0.00,meteohub,2013-03-21 10:22:00,
2013-03-21 03:27:00,28.2,26.8,30.12,SSW,209,0.0,0.0,94,0.00,,,0.00,meteohub,2013-03-21 10:27:00,
2013-03-21 03:32:00,28.2,26.8,30.11,SSW,209,0.0,1.0,94,0.00,,,0.00,meteohub,2013-03-21 10:32:00,
2013-03-21 03:37:00,28.2,26.8,30.11,SSW,209,0.0,1.0,94,0.00,,,0.00,meteohub,2013-03-21 10:37:00,
2013-03-21 03:47:00,28.2,27.0,30.10,SSW,209,0.0,1.0,95,0.00,,,0.00,meteohub,2013-03-21 10:47:00,
2013-03-21 03:57:00,28.0,26.8,30.09,SSW,209,0.0,1.0,95,0.00,,,0.00,meteohub,2013-03-21 10:57:00,
2013-03-21 04:02:00,28.0,26.8,30.09,SSW,209,0.0,1.0,95,0.00,,,0.00,meteohub,2013-03-21 11:02:00,
2013-03-21 04:07:00,27.9,26.4,30.09,SSW,209,0.0,1.0,94,0.00,,,0.00,meteohub,2013-03-21 11:07:00,
2013-03-21 04:12:00,27.7,26.2,30.09,SSW,209,0.0,0.0,94,0.00,,,0.00,meteohub,2013-03-21 11:12:00,
2013-03-21 04:17:00,27.5,26.1,30.09,SSW,209,0.0,2.0,94,0.00,,,0.00,meteohub,2013-03-21 11:17:00,
2013-03-21 04:22:00,27.3,25.9,30.08,SSW,209,0.0,2.0,94,0.00,,,0.00,meteohub,2013-03-21 11:22:00,
2013-03-21 04:27:00,27.3,26.1,30.08,SSW,209,0.0,1.0,95,0.00,,,0.00,meteohub,2013-03-21 11:27:00,
2013-03-21 04:32:00,27.3,26.1,30.08,SSW,209,0.0,2.0,95,0.00,,,0.00,meteohub,2013-03-21 11:32:00,
2013-03-21 04:37:00,27.1,25.9,30.08,SSW,209,0.0,2.0,95,0.00,,,0.00,meteohub,2013-03-21 11:37:00,
2013-03-21 04:42:00,27.0,25.5,30.09,SSW,209,0.0,2.0,94,0.00,,,0.00,meteohub,2013-03-21 11:42:00,
2013-03-21 04:57:00,27.0,25.7,30.08,SSW,209,0.0,1.0,95,0.00,,,0.00,meteohub,2013-03-21 11:57:00,
2013-03-21 05:02:00,27.0,25.7,30.08,SSE,165,0.0,1.0,95,0.00,,,0.00,meteohub,2013-03-21 12:02:00,
2013-03-21 05:07:00,27.1,25.9,30.07,East,98,3.0,3.0,95,0.00,,,0.00,meteohub,2013-03-21 12:07:00,
2013-03-21 05:17:00,27.7,26.6,30.07,East,99,1.0,3.0,96,0.00,,,0.00,meteohub,2013-03-21 12:17:00,
2013-03-21 05:22:00,27.3,26.1,30.06,East,99,2.0,3.0,95,0.00,,,0.00,meteohub,2013-03-21 12:22:00,
2013-03-21 05:27:00,27.5,26.2,30.06,East,100,3.0,3.0,95,0.00,,,0.00,meteohub,2013-03-21 12:27:00,
2013-03-21 05:32:00,27.7,26.6,30.06,ESE,111,0.0,4.0,96,0.00,,,0.00,meteohub,2013-03-21 12:32:00,
2013-03-21 05:37:00,27.9,26.8,30.06,ESE,111,0.0,4.0,96,0.00,,,0.00,meteohub,2013-03-21 12:37:00,
2013-03-21 05:42:00,27.9,26.6,30.05,ESE,111,0.0,4.0,95,0.00,,,0.00,meteohub,2013-03-21 12:42:00,
2013-03-21 05:52:00,28.4,27.3,30.05,ESE,114,0.0,3.0,96,0.00,,,0.00,meteohub,2013-03-21 12:52:00,
2013-03-21 06:02:00,28.8,27.7,30.05,ESE,114,0.0,2.0,96,0.00,,,0.00,meteohub,2013-03-21 13:02:00,
2013-03-21 06:07:00,28.8,27.5,30.05,North,350,0.0,2.0,95,0.00,,,0.00,meteohub,2013-03-21 13:07:00,
2013-03-21 06:12:00,28.6,27.3,30.05,NW,325,2.0,3.0,95,0.00,,,0.00,meteohub,2013-03-21 13:12:00,
2013-03-21 06:22:00,28.6,27.3,30.05,NW,321,0.0,3.0,95,0.00,,,0.00,meteohub,2013-03-21 13:22:00,
2013-03-21 06:27:00,28.6,27.3,30.05,NW,321,0.0,3.0,95,0.00,,,0.00,meteohub,2013-03-21 13:27:00,
2013-03-21 06:32:00,28.6,27.3,30.06,NW,321,2.0,3.0,95,0.00,,,0.00,meteohub,2013-03-21 13:32:00,
2013-03-21 06:37:00,28.2,27.0,30.06,NW,306,2.0,3.0,95,0.00,,,0.00,meteohub,2013-03-21 13:37:00,
2013-03-21 06:47:00,28.2,27.0,30.06,NW,306,0.0,3.0,95,0.00,,,0.00,meteohub,2013-03-21 13:47:00,
2013-03-21 06:52:00,28.4,27.3,30.06,NW,306,0.0,3.0,96,0.00,,,0.00,meteohub,2013-03-21 13:52:00,
2013-03-21 06:57:00,28.6,27.5,30.06,NW,306,0.0,3.0,96,0.00,,,0.00,meteohub,2013-03-21 13:57:00,
2013-03-21 07:02:00,28.6,27.3,30.05,South,179,1.0,3.0,95,0.00,,,0.00,meteohub,2013-03-21 14:02:00,
2013-03-21 07:12:00,28.8,27.5,30.04,SE,143,0.0,4.0,95,0.00,,,0.00,meteohub,2013-03-21 14:12:00,
2013-03-21 07:17:00,28.9,27.9,30.04,SE,143,0.0,4.0,96,0.00,,,0.00,meteohub,2013-03-21 14:17:00,
2013-03-21 07:22:00,29.1,28.0,30.04,SE,142,0.0,4.0,96,0.00,,,0.00,meteohub,2013-03-21 14:22:00,
2013-03-21 07:27:00,29.5,28.2,30.03,SSE,162,4.0,4.0,95,0.00,,,0.00,meteohub,2013-03-21 14:27:00,
2013-03-21 07:32:00,29.5,28.2,30.03,SSE,148,1.0,6.0,95,0.00,,,0.00,meteohub,2013-03-21 14:32:00,
2013-03-21 07:37:00,29.5,28.2,30.03,SE,146,0.0,6.0,95,0.00,,,0.00,meteohub,2013-03-21 14:37:00,
2013-03-21 07:42:00,29.5,28.2,30.03,ESE,117,2.0,5.0,95,0.00,,,0.00,meteohub,2013-03-21 14:42:00,
2013-03-21 07:47:00,29.8,28.6,30.02,East,94,1.0,5.0,95,0.00,,,0.00,meteohub,2013-03-21 14:47:00,
2013-03-21 07:52:00,30.6,29.1,30.02,East,101,2.0,5.0,94,0.00,,,0.00,meteohub,2013-03-21 14:52:00,
2013-03-21 08:22:00,32.9,29.7,29.98,SE,142,1.0,8.0,88,0.01,,,0.01,meteohub,2013-03-21 15:22:00,
2013-03-21 08:32:00,32.4,29.5,29.99,SE,126,0.0,6.0,89,0.01,,,0.01,meteohub,2013-03-21 15:32:00,
2013-03-21 08:42:00,32.9,29.5,29.98,NE,42,4.0,6.0,87,0.01,,,0.01,meteohub,2013-03-21 15:42:00,
2013-03-21 08:47:00,33.3,30.4,29.98,ENE,62,3.0,7.0,89,0.01,,,0.01,meteohub,2013-03-21 15:47:00,
2013-03-21 08:52:00,33.6,30.2,29.98,SSE,155,4.0,7.0,87,0.01,,,0.01,meteohub,2013-03-21 15:52:00,
2013-03-21 08:57:00,34.2,30.7,29.97,SSE,157,0.0,5.0,87,0.01,,,0.01,meteohub,2013-03-21 15:57:00,
2013-03-21 09:02:00,34.9,30.9,29.97,SSE,157,2.0,5.0,85,0.01,,,0.01,meteohub,2013-03-21 16:02:00,
2013-03-21 09:07:00,35.4,30.7,29.97,SSE,157,0.0,5.0,83,0.01,,,0.01,meteohub,2013-03-21 16:07:00,
2013-03-21 09:12:00,36.7,31.6,29.96,SSE,157,0.0,4.0,82,0.01,,,0.01,meteohub,2013-03-21 16:12:00,
2013-03-21 09:22:00,38.7,31.5,29.95,ESE,105,2.0,4.0,75,0.00,,,0.01,meteohub,2013-03-21 16:22:00,
2013-03-21 09:27:00,39.0,31.5,29.94,ESE,118,1.0,4.0,74,0.00,,,0.01,meteohub,2013-03-21 16:27:00,
2013-03-21 09:32:00,39.7,30.7,29.93,SSE,159,2.0,5.0,70,0.00,,,0.01,meteohub,2013-03-21 16:32:00,
2013-03-21 09:42:00,38.8,30.2,29.92,SSE,161,3.0,5.0,71,0.00,,,0.01,meteohub,2013-03-21 16:42:00,
2013-03-21 09:47:00,38.5,30.6,29.92,SSE,161,0.0,5.0,73,0.00,,,0.01,meteohub,2013-03-21 16:47:00,
2013-03-21 09:52:00,39.0,31.1,29.92,SSE,159,2.0,5.0,73,0.00,,,0.01,meteohub,2013-03-21 16:52:00,
2013-03-21 09:57:00,39.0,29.7,29.91,SSE,158,3.0,5.0,69,0.00,,,0.01,meteohub,2013-03-21 16:57:00,
2013-03-21 10:02:00,39.0,30.4,29.91,SSE,160,1.0,5.0,71,0.00,,,0.01,meteohub,2013-03-21 17:02:00,
2013-03-21 10:12:00,40.6,29.8,29.90,South,169,3.0,5.0,65,0.00,,,0.01,meteohub,2013-03-21 17:12:00,
2013-03-21 10:17:00,40.3,28.8,29.90,South,169,0.0,4.0,63,0.00,,,0.01,meteohub,2013-03-21 17:17:00,
2013-03-21 10:22:00,40.3,29.1,29.90,South,169,0.0,4.0,64,0.00,,,0.01,meteohub,2013-03-21 17:22:00,
2013-03-21 10:32:00,40.3,26.2,29.90,West,276,7.0,7.0,57,0.00,,,0.01,meteohub,2013-03-21 17:32:00,
2013-03-21 10:37:00,40.3,24.1,29.89,NW,306,6.0,10.0,52,0.00,,,0.01,meteohub,2013-03-21 17:37:00,
2013-03-21 10:42:00,40.3,24.4,29.89,NW,311,7.0,11.0,53,0.00,,,0.01,meteohub,2013-03-21 17:42:00,
2013-03-21 10:47:00,39.9,21.7,29.88,NW,320,17.0,17.0,48,0.00,,,0.01,meteohub,2013-03-21 17:47:00,
2013-03-21 10:57:00,41.0,21.7,29.88,NW,323,7.0,25.0,46,0.00,,,0.01,meteohub,2013-03-21 17:57:00,
2013-03-21 11:07:00,40.3,20.7,29.91,WNW,300,24.0,25.0,45,0.00,,,0.01,meteohub,2013-03-21 18:07:00,
2013-03-21 11:12:00,37.6,23.4,29.91,NW,306,13.0,30.0,56,0.00,,,0.01,meteohub,2013-03-21 18:12:00,
2013-03-21 11:17:00,37.0,22.8,29.91,NW,310,11.0,30.0,56,0.00,,,0.01,meteohub,2013-03-21 18:17:00,
2013-03-21 11:22:00,37.0,23.7,29.91,WSW,248,5.0,30.0,58,0.00,,,0.01,meteohub,2013-03-21 18:22:00,
2013-03-21 11:27:00,37.0,24.1,29.92,WNW,288,8.0,24.0,59,0.00,,,0.01,meteohub,2013-03-21 18:27:00,
2013-03-21 11:37:00,34.9,27.5,29.92,North,5,9.0,23.0,74,0.00,,,0.01,meteohub,2013-03-21 18:37:00,
2013-03-21 11:47:00,32.4,28.6,29.94,NW,323,8.0,23.0,86,0.00,,,0.01,meteohub,2013-03-21 18:47:00,
2013-03-21 11:52:00,31.6,28.8,29.94,NW,314,11.0,22.0,89,0.00,,,0.01,meteohub,2013-03-21 18:52:00,
2013-03-21 11:57:00,31.6,28.6,29.94,NW,314,15.0,18.0,88,0.00,,,0.01,meteohub,2013-03-21 18:57:00,
2013-03-21 12:02:00,31.8,28.4,29.94,West,260,13.0,28.0,87,0.00,,,0.01,meteohub,2013-03-21 19:02:00,
2013-03-21 12:07:00,32.2,28.2,29.94,NW,312,18.0,28.0,85,0.00,,,0.01,meteohub,2013-03-21 19:07:00,
2013-03-21 12:12:00,32.2,27.9,29.95,NW,311,10.0,28.0,84,0.00,,,0.01,meteohub,2013-03-21 19:12:00,
2013-03-21 12:17:00,32.2,27.7,29.94,NW,315,10.0,26.0,83,0.00,,,0.01,meteohub,2013-03-21 19:17:00,
2013-03-21 12:27:00,32.7,26.1,29.94,NW,312,11.0,22.0,76,0.00,,,0.01,meteohub,2013-03-21 19:27:00,
2013-03-21 12:37:00,36.0,25.3,29.92,NW,312,5.0,19.0,65,0.00,,,0.01,meteohub,2013-03-21 19:37:00,
2013-03-21 12:42:00,37.0,24.8,29.92,NW,309,8.0,19.0,61,0.00,,,0.01,meteohub,2013-03-21 19:42:00,
2013-03-21 12:52:00,36.0,26.8,29.93,NNW,331,9.0,17.0,69,0.00,,,0.01,meteohub,2013-03-21 19:52:00,
2013-03-21 12:57:00,34.3,25.5,29.93,WNW,287,8.0,25.0,70,0.00,,,0.01,meteohub,2013-03-21 19:57:00,
2013-03-21 13:02:00,34.9,24.6,29.93,NW,323,7.0,25.0,66,0.00,,,0.01,meteohub,2013-03-21 20:02:00,
2013-03-21 13:07:00,36.0,26.1,29.93,NW,304,12.0,25.0,67,0.00,,,0.01,meteohub,2013-03-21 20:07:00,
2013-03-21 13:12:00,36.9,24.3,29.92,NW,321,13.0,23.0,60,0.00,,,0.01,meteohub,2013-03-21 20:12:00,
2013-03-21 13:17:00,38.1,25.0,29.92,West,263,19.0,19.0,59,0.00,,,0.01,meteohub,2013-03-21 20:17:00,
2013-03-21 13:22:00,38.5,26.6,29.92,NW,326,14.0,23.0,62,0.00,,,0.01,meteohub,2013-03-21 20:22:00,
2013-03-21 13:27:00,37.6,27.0,29.93,NNE,15,12.0,23.0,65,0.00,,,0.01,meteohub,2013-03-21 20:27:00,
2013-03-21 13:32:00,35.6,26.8,29.94,NNE,26,12.0,23.0,70,0.00,,,0.01,meteohub,2013-03-21 20:32:00,
2013-03-21 13:37:00,34.2,27.7,29.95,North,355,6.0,22.0,77,0.00,,,0.01,meteohub,2013-03-21 20:37:00,
2013-03-21 13:47:00,32.4,27.1,29.95,NW,314,6.0,20.0,81,0.00,,,0.01,meteohub,2013-03-21 20:47:00,
2013-03-21 13:52:00,33.1,27.3,29.94,NW,306,5.0,17.0,79,0.00,,,0.01,meteohub,2013-03-21 20:52:00,
2013-03-21 14:02:00,34.5,26.8,29.94,NW,307,4.0,10.0,73,0.00,,,0.01,meteohub,2013-03-21 21:02:00,
2013-03-21 14:07:00,35.1,24.8,29.94,NW,315,9.0,14.0,66,0.00,,,0.01,meteohub,2013-03-21 21:07:00,
2013-03-21 14:12:00,35.2,24.3,29.94,NW,321,8.0,17.0,64,0.00,,,0.01,meteohub,2013-03-21 21:12:00,
2013-03-21 14:22:00,35.2,23.9,29.95,NW,314,16.0,17.0,63,0.00,,,0.01,meteohub,2013-03-21 21:22:00,
2013-03-21 14:27:00,34.5,23.9,29.95,NNW,329,12.0,16.0,65,0.00,,,0.01,meteohub,2013-03-21 21:27:00,
2013-03-21 14:37:00,33.8,24.8,29.96,NW,306,9.0,22.0,69,0.00,,,0.01,meteohub,2013-03-21 21:37:00,
2013-03-21 14:42:00,33.6,24.6,29.96,NW,325,6.0,22.0,69,0.00,,,0.01,meteohub,2013-03-21 21:42:00,
2013-03-21 14:52:00,34.3,25.2,29.95,NW,304,3.0,12.0,69,0.00,,,0.01,meteohub,2013-03-21 21:52:00,
2013-03-21 14:57:00,34.2,25.3,29.96,West,259,3.0,9.0,70,0.00,,,0.01,meteohub,2013-03-21 21:57:00,
2013-03-21 15:02:00,34.3,24.8,29.96,WNW,293,12.0,12.0,68,0.00,,,0.01,meteohub,2013-03-21 22:02:00,
2013-03-21 15:07:00,34.9,23.2,29.96,WNW,302,8.0,18.0,62,0.00,,,0.01,meteohub,2013-03-21 22:07:00,
2013-03-21 15:12:00,34.9,22.8,29.97,NW,313,8.0,18.0,61,0.00,,,0.01,meteohub,2013-03-21 22:12:00,
2013-03-21 15:22:00,33.8,23.4,29.97,NW,319,9.0,20.0,65,0.00,,,0.01,meteohub,2013-03-21 22:22:00,
2013-03-21 15:32:00,33.8,23.4,29.97,West,280,8.0,20.0,65,0.00,,,0.01,meteohub,2013-03-21 22:32:00,
2013-03-21 15:37:00,34.2,22.8,29.97,WNW,302,13.0,18.0,63,0.00,,,0.01,meteohub,2013-03-21 22:37:00,
2013-03-21 15:42:00,34.3,21.0,29.97,NW,317,7.0,23.0,58,0.00,,,0.01,meteohub,2013-03-21 22:42:00,
2013-03-21 15:47:00,34.7,21.0,29.97,WNW,298,9.0,23.0,57,0.00,,,0.01,meteohub,2013-03-21 22:47:00,
2013-03-21 15:57:00,35.2,18.9,29.97,NW,305,8.0,19.0,51,0.00,,,0.01,meteohub,2013-03-21 22:57:00,
2013-03-21 16:02:00,35.4,17.6,29.97,NNW,338,10.0,19.0,48,0.00,,,0.01,meteohub,2013-03-21 23:02:00,
2013-03-21 16:07:00,35.4,19.0,29.97,NNW,342,7.0,18.0,51,0.00,,,0.01,meteohub,2013-03-21 23:07:00,
2013-03-21 16:12:00,35.6,16.9,29.98,NW,309,11.0,18.0,46,0.00,,,0.01,meteohub,2013-03-21 23:12:00,
2013-03-21 16:17:00,35.6,16.3,29.98,NW,309,8.0,18.0,45,0.00,,,0.01,meteohub,2013-03-21 23:17:00,
2013-03-21 16:22:00,36.0,15.6,29.99,NW,316,6.0,16.0,43,0.00,,,0.01,meteohub,2013-03-21 23:22:00,
2013-03-21 16:27:00,36.0,15.1,29.99,NW,308,12.0,16.0,42,0.00,,,0.01,meteohub,2013-03-21 23:27:00,
2013-03-21 16:32:00,35.8,14.9,29.99,WNW,302,8.0,17.0,42,0.00,,,0.01,meteohub,2013-03-21 23:32:00,
2013-03-21 16:42:00,35.4,14.0,29.99,NW,307,11.0,17.0,41,0.00,,,0.01,meteohub,2013-03-21 23:42:00,
2013-03-21 16:47:00,35.2,14.4,30.00,NW,319,10.0,18.0,42,0.00,,,0.01,meteohub,2013-03-21 23:47:00,
2013-03-21 16:52:00,35.2,14.4,30.00,NW,317,9.0,18.0,42,0.00,,,0.01,meteohub,2013-03-21 23:52:00,
2013-03-21 16:57:00,35.2,14.4,30.00,NW,306,10.0,18.0,42,0.00,,,0.01,meteohub,2013-03-21 23:57:00,
2013-03-21 17:02:00,35.1,15.3,30.01,NW,319,8.0,16.0,44,0.00,,,0.01,meteohub,2013-03-22 00:02:00,
2013-03-21 17:12:00,34.9,12.9,30.01,NW,309,11.0,15.0,40,0.00,,,0.00,meteohub,2013-03-22 00:12:00,
2013-03-21 17:17:00,34.7,14.5,30.01,NW,309,7.0,17.0,43,0.00,,,0.00,meteohub,2013-03-22 00:17:00,
2013-03-21 17:22:00,34.5,14.4,30.02,NW,308,6.0,17.0,43,0.00,,,0.00,meteohub,2013-03-22 00:22:00,
2013-03-21 17:32:00,34.3,15.3,30.02,NW,325,7.0,16.0,45,0.00,,,0.00,meteohub,2013-03-22 00:32:00,
2013-03-21 17:42:00,33.8,15.3,30.03,NW,317,6.0,16.0,46,0.00,,,0.00,meteohub,2013-03-22 00:42:00,
2013-03-21 17:47:00,33.6,14.5,30.03,NW,326,7.0,13.0,45,0.00,,,0.00,meteohub,2013-03-22 00:47:00,
2013-03-21 17:52:00,33.4,14.4,30.04,NW,305,6.0,13.0,45,0.00,,,0.00,meteohub,2013-03-22 00:52:00,
2013-03-21 17:57:00,33.4,14.9,30.04,NW,312,8.0,13.0,46,0.00,,,0.00,meteohub,2013-03-22 00:57:00,
2013-03-21 18:07:00,33.1,14.0,30.05,NW,317,3.0,10.0,45,0.00,,,0.00,meteohub,2013-03-22 01:07:00,
2013-03-21 18:12:00,33.1,14.0,30.06,NW,307,2.0,9.0,45,0.00,,,0.00,meteohub,2013-03-22 01:12:00,
2013-03-21 18:17:00,32.9,14.4,30.06,WNW,300,1.0,7.0,46,0.00,,,0.00,meteohub,2013-03-22 01:17:00,
2013-03-21 18:22:00,32.7,14.7,30.06,WNW,300,0.0,7.0,47,0.00,,,0.00,meteohub,2013-03-22 01:22:00,
2013-03-21 18:32:00,32.2,14.7,30.07,WNW,300,0.0,3.0,48,0.00,,,0.00,meteohub,2013-03-22 01:32:00,
2013-03-21 18:37:00,31.6,12.7,30.07,NW,308,1.0,4.0,45,0.00,,,0.00,meteohub,2013-03-22 01:37:00,
2013-03-21 18:42:00,31.6,13.6,30.08,NW,308,0.0,4.0,47,0.00,,,0.00,meteohub,2013-03-22 01:42:00,
2013-03-21 18:47:00,31.3,14.4,30.07,NW,308,0.0,4.0,49,0.00,,,0.00,meteohub,2013-03-22 01:47:00,
2013-03-21 18:57:00,30.6,15.4,30.07,NW,308,0.0,2.0,53,0.00,,,0.00,meteohub,2013-03-22 01:57:00,
2013-03-21 19:02:00,30.2,15.1,30.08,NW,308,0.0,2.0,53,0.00,,,0.00,meteohub,2013-03-22 02:02:00,
2013-03-21 19:07:00,29.8,12.9,30.08,NW,308,0.0,2.0,49,0.00,,,0.00,meteohub,2013-03-22 02:07:00,
2013-03-21 19:12:00,29.7,13.8,30.08,NW,308,0.0,0.0,51,0.00,,,0.00,meteohub,2013-03-22 02:12:00,
2013-03-21 19:17:00,29.3,13.8,30.08,NW,308,0.0,0.0,52,0.00,,,0.00,meteohub,2013-03-22 02:17:00,
2013-03-21 19:22:00,28.8,13.8,30.08,NW,308,1.0,0.0,53,0.00,,,0.00,meteohub,2013-03-22 02:22:00,
2013-03-21 19:32:00,29.8,11.7,30.08,North,5,4.0,4.0,46,0.00,,,0.00,meteohub,2013-03-22 02:32:00,
2013-03-21 19:37:00,30.6,11.3,30.08,North,350,4.0,5.0,44,0.00,,,0.00,meteohub,2013-03-22 02:37:00,
2013-03-21 19:42:00,30.0,13.6,30.08,NW,306,3.0,5.0,50,0.00,,,0.00,meteohub,2013-03-22 02:42:00,
2013-03-21 19:52:00,27.0,14.2,30.08,WNW,299,1.0,6.0,58,0.00,,,0.00,meteohub,2013-03-22 02:52:00,
2013-03-21 19:57:00,26.2,14.2,30.08,WNW,301,1.0,6.0,60,0.00,,,0.00,meteohub,2013-03-22 02:57:00,
2013-03-21 20:02:00,25.9,14.7,30.09,WNW,301,0.0,5.0,62,0.00,,,0.00,meteohub,2013-03-22 03:02:00,
2013-03-21 20:07:00,25.0,13.8,30.09,SW,227,2.0,5.0,62,0.00,,,0.00,meteohub,2013-03-22 03:07:00,
2013-03-21 20:12:00,24.6,14.2,30.09,SE,132,0.0,3.0,64,0.00,,,0.00,meteohub,2013-03-22 03:12:00,
2013-03-21 20:17:00,24.4,15.1,30.09,SE,132,0.0,3.0,67,0.00,,,0.00,meteohub,2013-03-22 03:17:00,
2013-03-21 20:22:00,24.3,13.1,30.10,SE,132,1.0,3.0,62,0.00,,,0.00,meteohub,2013-03-22 03:22:00,
2013-03-21 20:27:00,24.3,13.5,30.10,SSE,161,0.0,3.0,63,0.00,,,0.00,meteohub,2013-03-22 03:27:00,
2013-03-21 20:32:00,24.6,13.1,30.11,ESE,113,1.0,4.0,61,0.00,,,0.00,meteohub,2013-03-22 03:32:00,
2013-03-21 20:42:00,24.3,12.4,30.11,SSE,159,0.0,5.0,60,0.00,,,0.00,meteohub,2013-03-22 03:42:00,
2013-03-21 20:57:00,23.2,12.0,30.12,SSE,155,0.0,6.0,62,0.00,,,0.00,meteohub,2013-03-22 03:57:00,
2013-03-21 21:02:00,22.5,12.6,30.12,SSE,155,0.0,6.0,65,0.00,,,0.00,meteohub,2013-03-22 04:02:00,
2013-03-21 21:07:00,22.3,12.9,30.12,ESE,111,0.0,6.0,67,0.00,,,0.00,meteohub,2013-03-22 04:07:00,
2013-03-21 21:12:00,22.5,12.2,30.12,South,170,2.0,5.0,64,0.00,,,0.00,meteohub,2013-03-22 04:12:00,
2013-03-21 21:17:00,21.7,11.5,30.12,SSE,157,0.0,5.0,64,0.00,,,0.00,meteohub,2013-03-22 04:17:00,
2013-03-21 21:22:00,21.0,11.1,30.13,SSE,157,2.0,5.0,65,0.00,,,0.00,meteohub,2013-03-22 04:22:00,
2013-03-21 21:27:00,20.3,11.1,30.12,SSE,157,0.0,5.0,67,0.00,,,0.00,meteohub,2013-03-22 04:27:00,
2013-03-21 21:32:00,20.1,11.8,30.13,SSE,157,1.0,4.0,70,0.00,,,0.00,meteohub,2013-03-22 04:32:00,
2013-03-21 21:37:00,20.1,10.9,30.13,SSE,160,1.0,4.0,67,0.00,,,0.00,meteohub,2013-03-22 04:37:00,
2013-03-21 21:42:00,19.8,11.3,30.13,SSE,158,0.0,5.0,69,0.00,,,0.00,meteohub,2013-03-22 04:42:00,
2013-03-21 21:47:00,19.8,10.9,30.14,SSE,159,0.0,5.0,68,0.00,,,0.00,meteohub,2013-03-22 04:47:00,
2013-03-21 21:52:00,19.8,11.5,30.13,SSE,167,2.0,4.0,70,0.00,,,0.00,meteohub,2013-03-22 04:52:00,
2013-03-21 21:57:00,19.8,11.3,30.14,SSE,167,0.0,5.0,69,0.00,,,0.00,meteohub,2013-03-22 04:57:00,
2013-03-21 22:02:00,19.4,11.3,30.14,SSE,167,2.0,5.0,70,0.00,,,0.00,meteohub,2013-03-22 05:02:00,
2013-03-21 22:07:00,19.4,11.3,30.14,SSE,165,0.0,4.0,70,0.00,,,0.00,meteohub,2013-03-22 05:07:00,
2013-03-21 22:12:00,19.4,10.9,30.14,SSE,165,1.0,4.0,69,0.00,,,0.00,meteohub,2013-03-22 05:12:00,
2013-03-21 22:17:00,19.8,11.5,30.14,SSE,165,0.0,4.0,70,0.00,,,0.00,meteohub,2013-03-22 05:17:00,
2013-03-21 22:22:00,20.1,11.8,30.15,SSE,165,0.0,4.0,70,0.00,,,0.00,meteohub,2013-03-22 05:22:00,
2013-03-21 22:27:00,19.9,11.1,30.15,SSE,165,0.0,3.0,68,0.00,,,0.00,meteohub,2013-03-22 05:27:00,
2013-03-21 22:42:00,18.7,10.6,30.15,SSE,165,0.0,1.0,70,0.00,,,0.00,meteohub,2013-03-22 05:42:00,
2013-03-21 22:47:00,18.0,9.1,30.15,SSE,165,0.0,1.0,68,0.00,,,0.00,meteohub,2013-03-22 05:47:00,
2013-03-21 22:57:00,17.1,9.7,30.15,SSE,165,0.0,2.0,72,0.00,,,0.00,meteohub,2013-03-22 05:57:00,
2013-03-21 23:02:00,17.1,10.2,30.15,SSE,165,2.0,2.0,74,0.00,,,0.00,meteohub,2013-03-22 06:02:00,
2013-03-21 23:07:00,16.5,8.8,30.15,SSE,165,3.0,4.0,71,0.00,,,0.00,meteohub,2013-03-22 06:07:00,
2013-03-21 23:12:00,16.3,9.1,30.15,SSE,165,3.0,4.0,73,0.00,,,0.00,meteohub,2013-03-22 06:12:00,
2013-03-21 23:17:00,16.0,9.1,30.15,SSE,158,0.0,5.0,74,0.00,,,0.00,meteohub,2013-03-22 06:17:00,
2013-03-21 23:27:00,16.0,8.6,30.16,South,177,0.0,6.0,72,0.00,,,0.00,meteohub,2013-03-22 06:27:00,
2013-03-21 23:32:00,16.0,9.5,30.16,South,177,2.0,6.0,75,0.00,,,0.00,meteohub,2013-03-22 06:32:00,
2013-03-21 23:37:00,15.8,8.6,30.16,South,177,0.0,6.0,73,0.00,,,0.00,meteohub,2013-03-22 06:37:00,
2013-03-21 23:42:00,15.8,9.3,30.16,SE,140,3.0,3.0,75,0.00,,,0.00,meteohub,2013-03-22 06:42:00,
2013-03-21 23:52:00,16.3,9.0,30.15,SE,141,2.0,4.0,72,0.00,,,0.00,meteohub,2013-03-22 06:52:00,
2013-03-21 23:57:00,16.3,9.1,30.15,SSE,164,2.0,4.0,73,0.00,,,0.00,meteohub,2013-03-22 06:57:00,